createdAt,value
2023-01-01T00:01:15.584Z,12.73
2023-01-01T00:04:34.675Z,12.71
2023-01-01T00:07:38.602Z,12.72
2023-01-01T00:10:42.501Z,12.74
2023-01-01T00:13:46.502Z,12.75
2023-01-01T00:16:50.578Z,12.76
2023-01-01T00:19:54.606Z,12.75
2023-01-01T00:22:58.540Z,12.72
2023-01-01T00:26:13.109Z,12.68
2023-01-01T00:29:16.992Z,12.64
2023-01-01T00:32:23.059Z,12.61
2023-01-01T00:35:27.788Z,12.59
2023-01-01T00:38:33.371Z,12.60
2023-01-01T00:41:37.381Z,12.58
2023-01-01T00:44:41.283Z,12.56
2023-01-01T00:47:45.216Z,12.53
2023-01-01T00:50:50.323Z,12.51
2023-01-01T00:53:54.249Z,12.49
2023-01-01T00:56:58.277Z,12.46
2023-01-01T01:00:02.297Z,12.43
2023-01-01T01:03:06.837Z,12.43
2023-01-01T01:06:15.577Z,12.45
2023-01-01T01:09:19.564Z,12.46
2023-01-01T01:12:23.585Z,12.47
2023-01-01T01:15:27.517Z,12.47
2023-01-01T01:18:31.510Z,12.45
2023-01-01T01:21:35.547Z,12.45
2023-01-01T01:24:39.490Z,12.44
2023-01-01T01:27:43.464Z,12.43
2023-01-01T01:30:47.408Z,12.48
2023-01-01T01:33:51.799Z,12.52
2023-01-01T01:36:56.290Z,12.56
2023-01-01T01:40:00.168Z,12.60
2023-01-01T01:43:04.254Z,12.60
2023-01-01T01:46:20.461Z,12.59
2023-01-01T01:49:30.584Z,12.57
2023-01-01T01:52:37.143Z,12.55
2023-01-01T01:55:47.435Z,12.53
2023-01-01T01:58:51.648Z,12.52
2023-01-01T02:02:00.725Z,12.55
2023-01-01T02:05:06.231Z,12.57
2023-01-01T02:08:14.780Z,12.58
2023-01-01T02:11:21.953Z,12.58
2023-01-01T02:14:26.232Z,12.58
2023-01-01T02:18:03.694Z,12.56
2023-01-01T02:21:33.203Z,12.52
2023-01-01T02:24:52.576Z,12.47
2023-01-01T02:28:19.909Z,12.42
2023-01-01T02:31:31.618Z,12.37
2023-01-01T02:34:41.200Z,12.37
2023-01-01T02:37:45.366Z,12.38
2023-01-01T02:40:54.906Z,12.40
2023-01-01T02:47:17.211Z,12.45
2023-01-01T02:50:25.533Z,12.46
2023-01-01T02:53:36.305Z,12.46
2023-01-01T02:56:46.270Z,12.43
2023-01-01T03:00:24.487Z,12.43
2023-01-01T03:03:38.005Z,12.41
2023-01-01T03:06:55.345Z,12.42
2023-01-01T03:10:02.556Z,12.45
2023-01-01T03:13:20.876Z,12.49
2023-01-01T03:16:39.472Z,12.53
2023-01-01T03:19:45.608Z,12.56
2023-01-01T03:22:53.371Z,12.61
2023-01-01T03:26:01.077Z,12.65
2023-01-01T03:29:06.259Z,12.68
2023-01-01T03:32:16.217Z,12.70
2023-01-01T03:35:25.526Z,12.73
2023-01-01T03:38:43.102Z,12.75
2023-01-01T03:41:56.121Z,12.79
2023-01-01T03:45:17.236Z,12.84
2023-01-01T03:48:21.552Z,12.90
2023-01-01T03:51:50.264Z,12.99
2023-01-01T03:55:09.141Z,13.10
2023-01-01T03:58:41.192Z,13.18
2023-01-01T04:01:49.601Z,13.26
2023-01-01T04:04:53.829Z,13.33
2023-01-01T04:08:02.243Z,13.42
2023-01-01T04:11:34.625Z,13.48
2023-01-01T04:14:41.410Z,13.53
2023-01-01T04:17:45.421Z,13.56
2023-01-01T04:20:49.441Z,13.60
2023-01-01T04:23:53.453Z,13.64
2023-01-01T04:26:58.478Z,13.68
2023-01-01T04:30:03.375Z,13.72
2023-01-01T04:33:07.284Z,13.75
2023-01-01T04:36:11.364Z,13.76
2023-01-01T04:39:15.354Z,13.76
2023-01-01T04:42:19.890Z,13.76
2023-01-01T04:45:23.767Z,13.77
2023-01-01T04:48:29.367Z,13.78
2023-01-01T04:51:33.388Z,13.78
2023-01-01T04:54:37.889Z,13.77
2023-01-01T04:57:42.531Z,13.75
2023-01-01T05:00:50.756Z,13.73
2023-01-01T05:03:56.052Z,13.72
2023-01-01T05:07:00.218Z,13.71
2023-01-01T05:10:05.016Z,13.70
2023-01-01T05:13:09.565Z,13.70
2023-01-01T05:16:17.063Z,13.71
2023-01-01T05:19:21.283Z,13.70
2023-01-01T05:22:25.172Z,13.68
2023-01-01T05:25:29.127Z,13.67
2023-01-01T05:28:33.012Z,13.65
2023-01-01T05:31:37.032Z,13.63
2023-01-01T05:34:41.483Z,13.61
2023-01-01T05:37:45.366Z,13.59
2023-01-01T05:40:49.420Z,13.58
2023-01-01T05:43:53.709Z,13.55
2023-01-01T05:46:58.161Z,13.53
2023-01-01T05:53:05.739Z,13.48
2023-01-01T05:56:09.660Z,13.45
2023-01-01T05:59:13.814Z,13.42
2023-01-01T06:02:18.499Z,13.40
2023-01-01T06:05:23.134Z,13.37
2023-01-01T06:08:27.193Z,13.36
2023-01-01T06:11:32.492Z,13.33
2023-01-01T06:14:36.878Z,13.30
2023-01-01T06:17:40.760Z,13.27
2023-01-01T06:20:44.683Z,13.25
2023-01-01T06:23:49.072Z,13.21
2023-01-01T06:26:53.022Z,13.17
2023-01-01T06:29:57.859Z,13.15
2023-01-01T06:33:01.843Z,13.11
2023-01-01T06:36:09.076Z,13.08
2023-01-01T06:39:13.092Z,13.04
2023-01-01T06:42:17.303Z,13.00
2023-01-01T06:45:21.329Z,12.96
2023-01-01T06:48:25.224Z,12.93
2023-01-01T06:51:36.525Z,12.90
2023-01-01T06:54:40.464Z,12.86
2023-01-01T06:57:44.381Z,12.83
2023-01-01T07:00:48.360Z,12.81
2023-01-01T07:03:54.720Z,12.80
2023-01-01T07:06:58.603Z,12.81
2023-01-01T07:10:02.613Z,12.83
2023-01-01T07:13:06.685Z,12.85
2023-01-01T07:16:13.429Z,12.86
2023-01-01T07:19:17.730Z,12.89
2023-01-01T07:22:21.620Z,12.90
2023-01-01T07:25:25.535Z,12.94
2023-01-01T07:28:29.457Z,12.99
2023-01-01T07:31:33.802Z,13.05
2023-01-01T07:34:37.784Z,13.11
2023-01-01T07:37:41.861Z,13.16
2023-01-01T07:40:45.997Z,13.21
2023-01-01T07:43:50.053Z,13.27
2023-01-01T07:47:04.844Z,13.32
2023-01-01T07:50:16.877Z,13.37
2023-01-01T07:53:20.906Z,13.40
2023-01-01T07:56:24.972Z,13.44
2023-01-01T07:59:28.917Z,13.50
2023-01-01T08:02:33.319Z,13.56
2023-01-01T08:05:38.978Z,13.60
2023-01-01T08:08:43.126Z,13.64
2023-01-01T08:11:47.331Z,13.68
2023-01-01T08:14:51.415Z,13.71
2023-01-01T08:17:59.997Z,13.78
2023-01-01T08:21:05.230Z,13.84
2023-01-01T08:24:09.351Z,13.90
2023-01-01T08:27:14.498Z,13.97
2023-01-01T08:30:18.712Z,14.04
2023-01-01T08:33:23.220Z,14.11
2023-01-01T08:36:29.068Z,14.17
2023-01-01T08:39:33.320Z,14.24
2023-01-01T08:42:37.247Z,14.32
2023-01-01T08:45:41.180Z,14.39
2023-01-01T08:48:45.148Z,14.45
2023-01-01T08:51:49.044Z,14.53
2023-01-01T08:54:53.090Z,14.61
2023-01-01T08:57:57.064Z,14.69
2023-01-01T09:01:01.575Z,14.76
2023-01-01T09:04:13.584Z,14.83
2023-01-01T09:07:19.446Z,14.92
2023-01-01T09:10:23.362Z,15.02
2023-01-01T09:13:28.152Z,15.11
2023-01-01T09:16:32.203Z,15.20
2023-01-01T09:19:36.279Z,15.30
2023-01-01T09:22:40.394Z,15.39
2023-01-01T09:25:44.305Z,15.48
2023-01-01T09:28:48.331Z,15.57
2023-01-01T09:31:52.399Z,15.68
2023-01-01T09:34:57.381Z,15.76
2023-01-01T09:38:01.390Z,15.86
2023-01-01T09:41:22.271Z,15.95
2023-01-01T09:44:44.774Z,16.04
2023-01-01T09:48:04.133Z,16.14
2023-01-01T09:51:15.696Z,16.22
2023-01-01T09:54:30.093Z,16.32
2023-01-01T09:57:34.040Z,16.40
2023-01-01T10:00:42.447Z,16.49
2023-01-01T10:03:56.441Z,16.60
2023-01-01T10:07:06.727Z,16.68
2023-01-01T10:10:31.839Z,16.74
2023-01-01T10:13:44.046Z,16.81
2023-01-01T10:16:53.389Z,16.87
2023-01-01T10:20:01.890Z,16.93
2023-01-01T10:23:19.769Z,16.99
2023-01-01T10:26:27.206Z,17.05
2023-01-01T10:29:40.761Z,17.11
2023-01-01T10:32:48.195Z,17.18
2023-01-01T10:35:56.927Z,17.22
2023-01-01T10:39:00.887Z,17.24
2023-01-01T10:42:05.039Z,17.24
2023-01-01T10:45:15.482Z,17.24
2023-01-01T10:48:27.106Z,17.24
2023-01-01T10:51:31.120Z,17.24
2023-01-01T10:54:39.000Z,17.24
2023-01-01T10:57:42.907Z,17.26
2023-01-01T11:00:58.482Z,17.28
2023-01-01T11:04:05.352Z,17.29
2023-01-01T11:07:09.500Z,17.29
2023-01-01T11:10:25.838Z,17.29
2023-01-01T11:13:31.384Z,17.28
2023-01-01T11:16:39.934Z,17.28
2023-01-01T11:19:52.680Z,17.27
2023-01-01T11:22:58.585Z,17.26
2023-01-01T11:26:17.957Z,17.26
2023-01-01T11:29:29.368Z,17.28
2023-01-01T11:32:36.750Z,17.29
2023-01-01T11:35:55.305Z,17.30
2023-01-01T11:39:18.213Z,17.32
2023-01-01T11:42:34.770Z,17.32
2023-01-01T11:45:42.283Z,17.33
2023-01-01T11:48:46.590Z,17.33
2023-01-01T11:51:50.713Z,17.33
2023-01-01T11:55:03.828Z,17.32
2023-01-01T11:58:29.821Z,17.33
2023-01-01T12:01:40.889Z,17.30
2023-01-01T12:04:53.772Z,17.28
2023-01-01T12:07:59.797Z,17.25
2023-01-01T12:11:15.425Z,17.23
2023-01-01T12:14:35.209Z,17.18
2023-01-01T12:17:53.973Z,17.12
2023-01-01T12:21:06.077Z,17.07
2023-01-01T12:24:12.398Z,17.02
2023-01-01T12:27:33.878Z,16.98
2023-01-01T12:30:51.930Z,16.95
2023-01-01T12:34:05.547Z,16.93
2023-01-01T12:37:34.527Z,16.91
2023-01-01T12:40:57.942Z,16.90
2023-01-01T12:44:35.597Z,16.90
2023-01-01T12:47:55.480Z,16.90
2023-01-01T12:51:31.059Z,16.91
2023-01-01T12:55:02.806Z,16.91
2023-01-01T12:58:16.806Z,16.90
2023-01-01T13:01:28.457Z,16.90
2023-01-01T13:04:36.800Z,16.90
2023-01-01T13:07:45.634Z,16.89
2023-01-01T13:10:53.096Z,16.89
2023-01-01T13:13:57.150Z,16.88
2023-01-01T13:17:01.180Z,16.85
2023-01-01T13:20:14.352Z,16.83
2023-01-01T13:23:34.726Z,16.82
2023-01-01T13:26:40.667Z,16.80
2023-01-01T13:29:45.390Z,16.77
2023-01-01T13:33:10.845Z,16.76
2023-01-01T13:36:20.659Z,16.72
2023-01-01T13:40:01.546Z,16.71
2023-01-01T13:43:16.112Z,16.59
2023-01-01T13:46:31.149Z,16.61
2023-01-01T13:49:55.468Z,16.56
2023-01-01T13:53:50.889Z,16.52
2023-01-01T13:57:00.399Z,16.45
2023-01-01T14:00:07.137Z,16.40
2023-01-01T14:03:18.825Z,16.34
2023-01-01T14:06:32.508Z,16.30
2023-01-01T14:09:36.772Z,16.24
2023-01-01T14:12:40.791Z,16.18
2023-01-01T14:15:58.771Z,16.11
2023-01-01T14:19:03.609Z,16.04
2023-01-01T14:22:10.140Z,15.97
2023-01-01T14:25:16.848Z,15.91
2023-01-01T14:28:26.120Z,15.82
2023-01-01T14:31:34.496Z,15.75
2023-01-01T14:34:38.563Z,15.67
2023-01-01T14:37:43.176Z,15.58
2023-01-01T14:40:47.180Z,15.50
2023-01-01T14:43:53.984Z,15.43
2023-01-01T14:46:58.137Z,15.37
2023-01-01T14:50:11.551Z,15.30
2023-01-01T14:53:20.605Z,15.24
2023-01-01T14:56:35.760Z,15.18
2023-01-01T14:59:47.886Z,15.13
2023-01-01T15:02:52.016Z,15.09
2023-01-01T15:06:01.918Z,15.04
2023-01-01T15:09:06.906Z,14.98
2023-01-01T15:12:13.876Z,14.93
2023-01-01T15:15:38.183Z,14.87
2023-01-01T15:18:42.980Z,14.81
2023-01-01T15:21:46.983Z,14.74
2023-01-01T15:24:51.352Z,14.67
2023-01-01T15:27:58.237Z,14.60
2023-01-01T15:31:02.359Z,14.54
2023-01-01T15:34:06.703Z,14.49
2023-01-01T15:37:32.538Z,14.44
2023-01-01T15:40:36.644Z,14.39
2023-01-01T15:43:41.356Z,14.35
2023-01-01T15:46:48.157Z,14.30
2023-01-01T15:50:32.374Z,14.26
2023-01-01T15:54:15.585Z,14.23
2023-01-01T15:57:22.848Z,14.20
2023-01-01T16:00:35.187Z,14.19
2023-01-01T16:03:41.264Z,14.16
2023-01-01T16:06:48.238Z,14.15
2023-01-01T16:09:57.686Z,14.13
2023-01-01T16:13:02.414Z,14.09
2023-01-01T16:16:26.422Z,14.04
2023-01-01T16:19:32.508Z,14.00
2023-01-01T16:22:36.903Z,13.96
2023-01-01T16:25:41.050Z,13.93
2023-01-01T16:28:45.066Z,13.90
2023-01-01T16:31:51.253Z,13.86
2023-01-01T16:34:55.197Z,13.82
2023-01-01T16:37:59.160Z,13.78
2023-01-01T16:41:03.199Z,13.74
2023-01-01T16:44:07.150Z,13.70
2023-01-01T16:47:11.107Z,13.67
2023-01-01T16:50:15.811Z,13.66
2023-01-01T16:53:19.738Z,13.66
2023-01-01T16:56:23.765Z,13.66
2023-01-01T16:59:27.871Z,13.65
2023-01-01T17:02:31.994Z,13.64
2023-01-01T17:05:43.654Z,13.62
2023-01-01T17:08:48.331Z,13.60
2023-01-01T17:11:52.239Z,13.58
2023-01-01T17:14:56.222Z,13.57
2023-01-01T17:18:00.352Z,13.55
2023-01-01T17:21:09.921Z,13.53
2023-01-01T17:24:15.859Z,13.50
2023-01-01T17:27:19.790Z,13.48
2023-01-01T17:30:23.728Z,13.45
2023-01-01T17:33:28.788Z,13.43
2023-01-01T17:36:32.811Z,13.41
2023-01-01T17:39:36.749Z,13.38
2023-01-01T17:42:40.650Z,13.35
2023-01-01T17:45:44.813Z,13.30
2023-01-01T17:48:49.963Z,13.29
2023-01-01T17:51:53.882Z,13.27
2023-01-01T17:54:58.813Z,13.23
2023-01-01T17:58:02.747Z,13.21
2023-01-01T18:01:22.191Z,13.17
2023-01-01T18:04:26.435Z,13.14
2023-01-01T18:07:30.587Z,13.12
2023-01-01T18:10:35.068Z,13.09
2023-01-01T18:13:39.094Z,13.06
2023-01-01T18:16:45.359Z,13.03
2023-01-01T18:19:49.368Z,13.01
2023-01-01T18:22:53.682Z,13.00
2023-01-01T18:26:00.972Z,12.98
2023-01-01T18:29:05.009Z,12.95
2023-01-01T18:32:08.960Z,12.93
2023-01-01T18:35:12.913Z,12.92
2023-01-01T18:38:19.190Z,12.91
2023-01-01T18:41:32.218Z,12.91
2023-01-01T18:44:36.546Z,12.88
2023-01-01T18:47:40.538Z,12.87
2023-01-01T18:50:44.437Z,12.86
2023-01-01T18:53:54.732Z,12.84
2023-01-01T18:57:07.979Z,12.82
2023-01-01T19:00:18.854Z,12.80
2023-01-01T19:03:28.342Z,12.78
2023-01-01T19:06:33.813Z,12.76
2023-01-01T19:09:38.366Z,12.73
2023-01-01T19:12:43.394Z,12.71
2023-01-01T19:15:48.857Z,12.68
2023-01-01T19:18:53.655Z,12.66
2023-01-01T19:22:08.559Z,12.65
2023-01-01T19:25:36.640Z,12.63
2023-01-01T19:28:52.226Z,12.67
2023-01-01T19:31:58.429Z,12.71
2023-01-01T19:35:02.386Z,12.75
2023-01-01T19:38:06.424Z,12.80
2023-01-01T19:41:11.277Z,12.83
2023-01-01T19:44:18.614Z,12.86
2023-01-01T19:47:27.094Z,12.87
2023-01-01T19:50:31.095Z,12.88
2023-01-01T19:53:35.217Z,12.87
2023-01-01T19:56:39.609Z,12.86
2023-01-01T19:59:43.517Z,12.85
2023-01-01T20:02:48.317Z,12.83
2023-01-01T20:05:52.779Z,12.82
2023-01-01T20:08:56.725Z,12.80
2023-01-01T20:12:00.669Z,12.77
2023-01-01T20:15:06.027Z,12.74
2023-01-01T20:18:09.997Z,12.71
2023-01-01T20:21:32.550Z,12.68
2023-01-01T20:24:37.328Z,12.65
2023-01-01T20:28:00.154Z,12.61
2023-01-01T20:31:04.256Z,12.57
2023-01-01T20:34:08.369Z,12.54
2023-01-01T20:37:31.105Z,12.50
2023-01-01T20:40:35.235Z,12.47
2023-01-01T20:43:39.173Z,12.43
2023-01-01T20:46:44.607Z,12.39
2023-01-01T20:49:48.836Z,12.38
2023-01-01T20:52:52.947Z,12.39
2023-01-01T20:55:56.879Z,12.40
2023-01-01T20:59:24.380Z,12.42
2023-01-01T21:02:26.152Z,12.42
2023-01-01T21:05:30.321Z,12.41
2023-01-01T21:08:34.218Z,12.39
2023-01-01T21:11:38.344Z,12.34
2023-01-01T21:14:42.725Z,12.29
2023-01-01T21:17:46.790Z,12.24
2023-01-01T21:20:50.763Z,12.18
2023-01-01T21:24:01.272Z,12.13
2023-01-01T21:27:08.194Z,12.06
2023-01-01T21:30:13.403Z,11.99
2023-01-01T21:33:27.103Z,11.93
2023-01-01T21:36:31.155Z,11.89
2023-01-01T21:39:35.168Z,11.86
2023-01-01T21:42:39.071Z,11.87
2023-01-01T21:45:46.208Z,11.87
2023-01-01T21:48:57.157Z,11.88
2023-01-01T21:52:02.279Z,11.86
2023-01-01T21:55:23.581Z,11.82
2023-01-01T21:58:53.551Z,11.79
2023-01-01T22:02:35.107Z,11.74
2023-01-01T22:05:42.669Z,11.67
2023-01-01T22:08:47.354Z,11.61
2023-01-01T22:11:53.247Z,11.55
2023-01-01T22:15:06.421Z,11.48
2023-01-01T22:18:24.335Z,11.40
2023-01-01T22:21:31.160Z,11.33
2023-01-01T22:24:36.511Z,11.31
2023-01-01T22:27:40.743Z,11.28
2023-01-01T22:30:44.791Z,11.25
2023-01-01T22:33:49.682Z,11.24
2023-01-01T22:36:53.921Z,11.22
2023-01-01T22:40:00.778Z,11.17
2023-01-01T22:43:17.208Z,11.11
2023-01-01T22:46:37.902Z,11.06
2023-01-01T22:49:46.966Z,11.01
2023-01-01T22:52:51.274Z,10.95
2023-01-01T22:55:55.167Z,10.90
2023-01-01T22:58:59.072Z,10.86
2023-01-01T23:02:03.647Z,10.86
2023-01-01T23:05:07.778Z,10.85
2023-01-01T23:08:11.657Z,10.86
2023-01-01T23:11:15.878Z,10.86
2023-01-01T23:14:39.372Z,10.84
2023-01-01T23:17:43.569Z,10.81
2023-01-01T23:20:47.585Z,10.77
2023-01-01T23:23:52.975Z,10.73
2023-01-01T23:26:58.174Z,10.65
2023-01-01T23:30:03.531Z,10.60
2023-01-01T23:33:07.504Z,10.53
2023-01-01T23:36:11.836Z,10.47
2023-01-01T23:39:15.719Z,10.43
2023-01-01T23:42:19.628Z,10.41
2023-01-01T23:45:23.578Z,10.39
2023-01-01T23:48:28.729Z,10.34
2023-01-01T23:51:34.072Z,10.30
2023-01-01T23:54:39.137Z,10.28
2023-01-01T23:57:43.111Z,10.24
